Time;durP1;ratioP1;P1;durP2;ratioP2;P2;SDS_P1;SDS_P2;PMS_P1;PMS_P2;Temp;Humidity;BMP_temperature;BMP_pressure;BME280_temperature;BME280_humidity;BME280_pressure;Samples;Min_cycle;Max_cycle;Signal;HPM_P1;HPM_P2
2022/12/07 00:00:49;;;;;;;26.42;12.52;;;;;;;1.00;71.48;92511.34;2071527;69;20164;-75
2022/12/07 00:03:15;;;;;;;27.00;13.20;;;;;;;0.99;71.97;92506.38;2071479;69;20152;-73
2022/12/07 00:05:40;;;;;;;27.52;13.20;;;;;;;0.94;71.89;92502.50;2071616;69;20159;-73
2022/12/07 00:08:06;;;;;;;29.40;12.85;;;;;;;0.96;71.08;92502.69;2071487;69;20147;-73
2022/12/07 00:10:33;;;;;;;27.05;13.40;;;;;;;0.74;72.87;92506.19;2065380;69;20144;-72
2022/12/07 00:12:59;;;;;;;26.60;13.68;;;;;;;0.76;73.52;92511.91;2071511;69;20148;-73
2022/12/07 00:15:25;;;;;;;24.80;12.85;;;;;;;0.78;72.88;92501.00;2068022;69;20167;-75
2022/12/07 00:17:50;;;;;;;24.90;12.88;;;;;;;0.86;73.18;92509.31;2071502;69;20184;-74
2022/12/07 00:20:16;;;;;;;27.15;13.23;;;;;;;0.90;72.40;92507.66;2071349;69;20140;-76
2022/12/07 00:22:41;;;;;;;27.17;12.25;;;;;;;0.88;72.81;92518.56;2071928;69;20155;-77
2022/12/07 00:25:07;;;;;;;24.58;11.30;;;;;;;0.89;72.30;92513.75;2071908;69;20636;-74
2022/12/07 00:27:33;;;;;;;25.88;12.27;;;;;;;0.91;71.55;92517.44;2071447;69;20180;-73
2022/12/07 00:29:58;;;;;;;24.88;11.65;;;;;;;0.87;71.61;92510.78;2067519;69;20176;-74
2022/12/07 00:32:24;;;;;;;22.65;11.95;;;;;;;0.85;72.91;92507.84;2068202;69;20137;-74
2022/12/07 00:34:49;;;;;;;23.38;11.68;;;;;;;0.85;73.01;92511.34;2068331;69;20655;-72
2022/12/07 00:37:15;;;;;;;23.83;11.73;;;;;;;0.89;73.34;92508.22;2068050;69;20214;-71
2022/12/07 00:39:41;;;;;;;22.13;11.55;;;;;;;0.91;72.95;92506.38;2064864;69;20622;-72
2022/12/07 00:42:06;;;;;;;25.80;12.77;;;;;;;0.95;71.81;92503.97;2069699;69;20164;-73
2022/12/07 00:44:32;;;;;;;21.75;11.40;;;;;;;0.96;72.12;92497.16;2070518;69;20151;-73
2022/12/07 00:46:57;;;;;;;22.80;11.77;;;;;;;0.93;72.35;92503.78;2069427;69;20519;-73
2022/12/07 00:49:26;;;;;;;24.50;11.05;;;;;;;0.91;72.24;92502.84;2068416;69;20141;-70
2022/12/07 00:51:51;;;;;;;22.35;11.43;;;;;;;1.00;72.34;92505.06;2068080;69;20245;-73
2022/12/07 00:54:17;;;;;;;21.85;11.07;;;;;;;0.96;72.22;92499.94;2067804;69;20160;-77
2022/12/07 00:56:43;;;;;;;22.90;11.35;;;;;;;0.76;73.09;92495.28;2068167;69;20607;-77
2022/12/07 00:59:13;;;;;;;18.70;10.75;;;;;;;0.84;72.94;92503.59;2068130;69;20172;-74
2022/12/07 01:01:39;;;;;;;24.10;11.48;;;;;;;0.91;72.51;92494.53;2067363;69;20141;-77
2022/12/07 01:04:05;;;;;;;22.42;11.13;;;;;;;0.88;72.78;92492.91;2067301;69;20156;-75
2022/12/07 01:06:31;;;;;;;17.17;10.45;;;;;;;0.92;72.44;92499.53;2067489;69;20330;-75
2022/12/07 01:08:58;;;;;;;22.70;11.07;;;;;;;0.82;72.64;92493.06;2067155;69;20496;-73
2022/12/07 01:11:26;;;;;;;23.75;11.05;;;;;;;0.86;72.92;92504.50;2067695;69;20151;-76
2022/12/07 01:13:55;;;;;;;23.40;11.23;;;;;;;0.73;73.29;92501.91;2068147;69;20151;-73
2022/12/07 01:16:21;;;;;;;19.70;10.75;;;;;;;0.74;72.89;92498.59;2068189;69;20194;-73
2022/12/07 01:18:49;;;;;;;20.70;10.00;;;;;;;0.72;72.69;92494.88;2067908;69;20141;-80
2022/12/07 01:21:18;;;;;;;19.58;10.10;;;;;;;0.77;73.32;92497.47;2068087;69;20137;-77
2022/12/07 01:23:44;;;;;;;22.15;10.57;;;;;;;0.79;72.45;92502.50;2068117;69;20631;-76
2022/12/07 01:26:14;;;;;;;19.83;10.32;;;;;;;0.84;71.75;92503.59;2068067;69;20147;-81
2022/12/07 01:28:41;;;;;;;20.27;10.70;;;;;;;0.82;72.47;92495.09;2068200;69;20596;-76
2022/12/07 01:31:11;;;;;;;21.63;10.40;;;;;;;0.83;71.60;92497.31;2071317;69;20272;-73
2022/12/07 01:33:38;;;;;;;21.35;10.68;;;;;;;0.83;71.53;92507.66;2067855;69;20171;-72
2022/12/07 01:36:12;;;;;;;19.00;9.88;;;;;;;0.82;71.71;92508.94;2071338;69;20146;-75
2022/12/07 01:38:38;;;;;;;21.20;10.32;;;;;;;0.84;72.14;92509.88;2071249;69;20151;-72
2022/12/07 01:41:04;;;;;;;20.95;10.60;;;;;;;0.81;72.85;92510.97;2071227;69;20159;-72
2022/12/07 01:43:31;;;;;;;21.60;10.23;;;;;;;0.86;72.56;92509.31;2071257;69;20221;-72
2022/12/07 01:45:57;;;;;;;20.98;10.18;;;;;;;0.79;72.17;92510.81;2071253;69;20155;-73
2022/12/07 01:48:28;;;;;;;18.13;9.60;;;;;;;0.87;72.48;92519.09;2070994;69;20148;-72
2022/12/07 01:51:00;;;;;;;18.58;10.15;;;;;;;0.74;72.07;92517.25;2071274;69;20175;-72
2022/12/07 01:53:30;;;;;;;18.25;10.50;;;;;;;0.53;73.27;92509.09;2071190;69;20156;-72
2022/12/07 01:55:57;;;;;;;21.38;9.93;;;;;;;0.72;72.46;92515.03;2071438;69;20152;-72
2022/12/07 01:58:24;;;;;;;22.00;10.23;;;;;;;0.81;72.38;92508.22;2071272;69;20220;-72
2022/12/07 02:00:49;;;;;;;21.13;9.82;;;;;;;0.84;71.81;92511.91;2071192;69;20239;-73
2022/12/07 02:03:21;;;;;;;21.77;10.60;;;;;;;0.81;71.98;92501.94;2071348;69;20146;-74
2022/12/07 02:05:49;;;;;;;20.88;9.85;;;;;;;0.80;72.29;92509.50;2067901;69;20675;-72
2022/12/07 02:08:15;;;;;;;18.63;9.70;;;;;;;0.72;72.78;92514.28;2071128;69;20200;-72
2022/12/07 02:10:40;;;;;;;20.92;10.20;;;;;;;0.83;72.48;92511.19;2071143;69;20152;-73
2022/12/07 02:13:21;;;;;;;19.02;9.48;;;;;;;0.84;71.60;92506.38;2071168;69;20604;-72
2022/12/07 02:16:00;;;;;;;21.15;9.40;;;;;;;0.82;72.43;92515.22;2067841;69;20220;-72
2022/12/07 02:18:39;;;;;;;19.55;10.40;;;;;;;0.86;72.18;92512.81;2071168;69;20193;-73
2022/12/07 02:21:24;;;;;;;17.60;9.68;;;;;;;0.82;72.67;92511.72;2071159;69;20176;-72
2022/12/07 02:24:23;;;;;;;21.80;10.43;;;;;;;0.88;72.25;92510.25;2071192;69;20239;-73
2022/12/07 02:27:20;;;;;;;18.70;9.65;;;;;;;0.87;71.22;92500.47;2071126;69;20178;-72
2022/12/07 02:30:12;;;;;;;18.33;10.35;;;;;;;0.70;72.78;92494.72;2070796;69;20229;-73
2022/12/07 02:33:02;;;;;;;19.23;9.67;;;;;;;0.74;72.77;92495.84;2071221;69;20604;-72
2022/12/07 02:35:40;;;;;;;17.40;9.77;;;;;;;0.75;72.08;92496.56;2071066;69;20259;-72
2022/12/07 02:38:14;;;;;;;19.40;9.73;;;;;;;0.71;72.51;92488.63;2071307;69;20144;-72
2022/12/07 02:40:46;;;;;;;18.52;9.40;;;;;;;0.64;72.92;92494.91;2071160;69;20262;-72
2022/12/07 02:43:38;;;;;;;18.52;9.85;;;;;;;0.76;72.96;92493.25;2071046;69;20187;-71
2022/12/07 02:46:14;;;;;;;19.45;10.32;;;;;;;0.67;72.85;92498.59;2068681;69;20591;-72
2022/12/07 02:48:46;;;;;;;17.15;9.65;;;;;;;0.63;72.78;92487.84;2070810;69;20136;-73
2022/12/07 02:51:12;;;;;;;16.10;9.63;;;;;;;0.69;72.50;92482.16;2071156;69;20160;-71
2022/12/07 02:53:43;;;;;;;17.90;9.93;;;;;;;0.69;72.51;92480.13;2071281;69;20681;-71
2022/12/07 02:56:38;;;;;;;21.27;9.90;;;;;;;0.69;73.30;92484.94;2071380;69;20260;-74
2022/12/07 02:59:13;;;;;;;18.95;10.30;;;;;;;0.64;72.95;92477.50;2071126;69;20223;-73
2022/12/07 03:01:48;;;;;;;18.25;9.82;;;;;;;0.66;72.85;92480.47;2071581;69;20170;-72
2022/12/07 03:04:29;;;;;;;17.98;10.13;;;;;;;0.69;72.87;92480.13;2071763;69;20632;-72
2022/12/07 03:07:04;;;;;;;21.00;10.13;;;;;;;0.62;73.49;92475.31;2071796;69;20596;-72
2022/12/07 03:09:43;;;;;;;23.83;10.35;;;;;;;0.72;73.07;92478.28;2071790;69;20152;-71
2022/12/07 03:12:24;;;;;;;18.67;10.43;;;;;;;0.62;72.80;92480.84;2071737;69;20148;-73
2022/12/07 03:14:59;;;;;;;16.48;9.73;;;;;;;0.66;73.25;92461.09;2071814;69;20228;-73
2022/12/07 03:17:30;;;;;;;19.92;9.73;;;;;;;0.55;73.35;92476.03;2071600;69;20190;-72
2022/12/07 03:19:59;;;;;;;18.92;10.23;;;;;;;0.60;73.83;92469.59;2071644;69;20155;-72
2022/12/07 03:22:30;;;;;;;16.83;9.73;;;;;;;0.64;73.88;92466.44;2071594;69;20199;-72
2022/12/07 03:25:00;;;;;;;17.77;9.80;;;;;;;0.71;73.31;92474.03;2071359;69;20237;-72
2022/12/07 03:27:33;;;;;;;16.27;9.43;;;;;;;0.48;74.26;92466.41;2067731;69;20876;-73
2022/12/07 03:30:06;;;;;;;19.08;9.75;;;;;;;0.52;73.56;92471.59;2071555;69;20190;-72
2022/12/07 03:32:40;;;;;;;19.92;10.10;;;;;;;0.61;72.94;92475.88;2071629;69;20223;-73
2022/12/07 03:35:15;;;;;;;15.90;9.43;;;;;;;0.63;73.27;92465.69;2071478;69;20149;-72
2022/12/07 03:37:56;;;;;;;19.88;9.75;;;;;;;0.53;73.31;92458.47;2071661;69;20631;-72
2022/12/07 03:40:45;;;;;;;23.33;12.20;;;;;;;0.57;73.95;92456.09;2065551;69;20144;-74
2022/12/07 03:43:12;;;;;;;22.30;10.80;;;;;;;0.61;73.65;92459.25;2071389;69;20152;-73
2022/12/07 03:45:43;;;;;;;18.70;10.25;;;;;;;0.48;73.82;92452.56;2071641;69;20144;-72
2022/12/07 03:48:18;;;;;;;20.77;9.60;;;;;;;0.37;73.75;92461.25;2071461;69;20179;-75
2022/12/07 03:50:52;;;;;;;18.77;10.07;;;;;;;0.50;73.46;92452.00;2071559;69;20133;-73
2022/12/07 03:53:24;;;;;;;17.63;11.20;;;;;;;0.61;73.19;92453.69;2071529;69;20120;-75
2022/12/07 03:55:51;;;;;;;21.50;11.52;;;;;;;0.62;72.52;92450.38;2068329;69;20155;-73
2022/12/07 03:58:20;;;;;;;22.55;11.38;;;;;;;0.72;73.21;92448.53;2071709;69;20238;-73
2022/12/07 04:00:46;;;;;;;20.77;12.02;;;;;;;0.66;72.29;92450.75;2065303;69;20577;-71
2022/12/07 04:03:12;;;;;;;24.40;12.27;;;;;;;0.63;72.19;92451.84;2071435;69;20140;-71
2022/12/07 04:05:39;;;;;;;24.08;12.82;;;;;;;0.59;73.49;92451.47;2071860;69;20156;-71
2022/12/07 04:08:04;;;;;;;26.63;13.90;;;;;;;0.53;73.68;92448.16;2071513;69;20205;-71
2022/12/07 04:10:30;;;;;;;24.13;13.27;;;;;;;0.54;72.76;92443.34;2071460;69;20535;-72
2022/12/07 04:12:56;;;;;;;19.25;11.02;;;;;;;0.38;73.22;92445.34;2071452;69;20136;-72
2022/12/07 04:15:22;;;;;;;22.55;13.00;;;;;;;0.51;73.22;92439.66;2071464;69;20192;-74
2022/12/07 04:17:48;;;;;;;25.52;12.73;;;;;;;0.44;74.03;92437.59;2071482;69;20621;-75
2022/12/07 04:20:13;;;;;;;20.67;12.43;;;;;;;0.52;73.54;92430.06;2071387;69;20213;-73
2022/12/07 04:22:39;;;;;;;22.20;12.52;;;;;;;0.55;73.66;92428.97;2071463;69;20585;-72
2022/12/07 04:25:05;;;;;;;22.60;12.60;;;;;;;0.56;73.64;92429.69;2071450;69;20140;-72
2022/12/07 04:27:31;;;;;;;25.00;13.38;;;;;;;0.48;74.04;92432.44;2071577;69;20140;-72
2022/12/07 04:29:56;;;;;;;21.88;13.30;;;;;;;0.60;74.26;92441.88;2071380;69;20152;-75
2022/12/07 04:32:23;;;;;;;24.67;12.93;;;;;;;0.58;73.32;92440.94;2071595;69;20186;-71
2022/12/07 04:34:49;;;;;;;25.50;12.90;;;;;;;0.63;73.84;92435.22;2071383;69;20221;-71
2022/12/07 04:37:15;;;;;;;21.17;12.65;;;;;;;0.60;73.82;92435.59;2071524;69;20156;-72
2022/12/07 04:39:41;;;;;;;22.70;13.25;;;;;;;0.41;75.32;92433.91;2071591;69;20259;-72
2022/12/07 04:42:07;;;;;;;20.73;13.23;;;;;;;0.41;75.36;92433.16;2065405;69;20279;-73
2022/12/07 04:44:32;;;;;;;20.67;11.73;;;;;;;0.57;74.51;92436.69;2068108;69;20549;-72
2022/12/07 04:46:58;;;;;;;21.00;11.80;;;;;;;0.61;73.71;92432.28;2071490;69;20153;-73
2022/12/07 04:49:24;;;;;;;20.10;11.55;;;;;;;0.56;74.12;92440.78;2071415;69;20616;-73
2022/12/07 04:51:51;;;;;;;25.33;12.98;;;;;;;0.40;74.13;92443.50;2071435;69;20148;-71
2022/12/07 04:54:18;;;;;;;19.50;11.30;;;;;;;0.25;75.86;92443.47;2071520;69;20155;-73
2022/12/07 04:56:43;;;;;;;21.83;10.85;;;;;;;0.44;74.68;92452.19;2068206;69;20147;-72
2022/12/07 04:59:11;;;;;;;20.38;11.00;;;;;;;0.56;73.19;92452.59;2071285;69;20156;-72
2022/12/07 05:01:43;;;;;;;20.40;12.30;;;;;;;0.57;74.37;92459.59;2071418;69;20240;-74
2022/12/07 05:04:09;;;;;;;21.30;12.60;;;;;;;0.56;74.61;92454.63;2071336;69;20219;-73
2022/12/07 05:06:35;;;;;;;23.65;13.57;;;;;;;0.58;73.67;92457.56;2071585;69;20145;-73
2022/12/07 05:09:01;;;;;;;18.52;10.77;;;;;;;0.41;74.81;92453.31;2071488;69;20497;-72
2022/12/07 05:11:39;;;;;;;19.45;11.52;;;;;;;0.46;74.98;92448.88;2071706;69;20596;-73
2022/12/07 05:14:15;;;;;;;21.35;12.30;;;;;;;0.62;73.98;92458.69;2071649;69;20223;-73
2022/12/07 05:16:42;;;;;;;20.75;12.23;;;;;;;0.63;73.59;92446.31;2068278;69;20658;-72
2022/12/07 05:19:09;;;;;;;22.05;12.15;;;;;;;0.65;73.66;92445.78;2071669;69;20147;-73
2022/12/07 05:21:35;;;;;;;20.80;12.15;;;;;;;0.61;73.90;92443.34;2072676;69;20597;-73
2022/12/07 05:24:01;;;;;;;20.10;11.45;;;;;;;0.57;74.48;92450.56;2069717;69;20144;-75
2022/12/07 05:26:27;;;;;;;22.45;12.40;;;;;;;0.63;73.47;92451.09;2073532;69;20249;-73
2022/12/07 05:28:54;;;;;;;21.98;12.75;;;;;;;0.64;74.31;92444.28;2071711;69;20144;-75
2022/12/07 05:31:20;;;;;;;25.00;14.05;;;;;;;0.72;73.98;92448.53;2071530;69;20239;-76
2022/12/07 05:33:46;;;;;;;21.88;11.25;;;;;;;0.71;73.77;92447.06;2071357;69;20160;-78
2022/12/07 05:36:12;;;;;;;26.92;15.02;;;;;;;0.58;75.10;92444.44;2067984;69;20223;-75
2022/12/07 05:38:37;;;;;;;25.75;15.20;;;;;;;0.61;73.78;92443.34;2071244;69;20167;-75
2022/12/07 05:41:05;;;;;;;31.15;17.02;;;;;;;0.65;74.21;92449.28;2071285;69;20136;-75
2022/12/07 05:43:32;;;;;;;28.52;16.40;;;;;;;0.72;74.08;92459.59;2068346;69;20570;-79
2022/12/07 05:45:59;;;;;;;29.88;16.63;;;;;;;0.75;74.12;92452.97;2071580;69;20152;-80
2022/12/07 05:48:25;;;;;;;29.52;15.98;;;;;;;0.67;74.59;92451.47;2071207;69;20229;-80
2022/12/07 05:50:52;;;;;;;31.42;16.38;;;;;;;0.71;74.44;92447.06;2071481;69;20168;-72
2022/12/07 05:53:18;;;;;;;32.20;17.33;;;;;;;0.72;73.80;92453.34;2071511;69;20168;-73
2022/12/07 05:55:44;;;;;;;32.78;17.73;;;;;;;0.71;73.42;92451.84;2071708;69;20610;-77
2022/12/07 06:00:55;;;;;;;30.95;16.90;;;;;;;0.54;74.89;92451.66;2071483;69;20164;-83
2022/12/07 06:03:22;;;;;;;29.17;15.25;;;;;;;0.61;74.88;92459.25;2068181;69;20144;-78
2022/12/07 06:05:48;;;;;;;26.08;15.32;;;;;;;0.68;74.69;92462.00;2068302;69;20148;-80
2022/12/07 06:08:14;;;;;;;32.13;16.70;;;;;;;0.63;74.51;92460.16;2065217;69;20224;-82
2022/12/07 06:10:41;;;;;;;29.88;15.20;;;;;;;0.72;74.41;92461.63;2071322;69;20553;-77
2022/12/07 06:13:08;;;;;;;32.53;15.35;;;;;;;0.58;74.55;92465.88;2071546;69;20225;-81
2022/12/07 06:15:37;;;;;;;24.40;12.88;;;;;;;0.21;76.70;92465.97;2071470;69;20155;-81
2022/12/07 06:18:03;;;;;;;27.55;14.52;;;;;;;0.38;76.04;92459.94;2071308;69;20151;-77
2022/12/07 06:20:29;;;;;;;24.17;13.88;;;;;;;0.47;75.29;92455.91;2071719;69;20164;-83
2022/12/07 06:22:54;;;;;;;25.67;14.30;;;;;;;0.57;75.10;92461.63;2071713;69;20198;-72
2022/12/07 06:25:20;;;;;;;28.83;14.50;;;;;;;0.48;74.50;92454.59;2071228;69;20581;-73
2022/12/07 06:27:45;;;;;;;28.33;14.23;;;;;;;0.44;74.95;92466.03;2067927;69;20218;-73
2022/12/07 06:30:11;;;;;;;24.35;14.35;;;;;;;0.45;75.69;92466.78;2067814;69;20151;-73
2022/12/07 06:32:40;;;;;;;28.48;14.13;;;;;;;0.48;75.04;92479.53;2071450;69;20187;-76
2022/12/07 06:35:06;;;;;;;27.42;14.63;;;;;;;0.56;74.52;92468.47;2071151;69;20588;-74
2022/12/07 06:37:31;;;;;;;25.20;13.85;;;;;;;0.52;74.41;92466.06;2071716;69;20147;-79
2022/12/07 06:39:57;;;;;;;27.20;14.60;;;;;;;0.53;74.49;92464.03;2071735;69;20202;-77
2022/12/07 06:42:22;;;;;;;23.05;13.65;;;;;;;0.54;74.38;92471.78;2071910;69;20228;-73
2022/12/07 06:44:49;;;;;;;23.48;13.73;;;;;;;0.58;74.40;92472.16;2072319;69;20145;-79
2022/12/07 06:47:15;;;;;;;24.83;14.20;;;;;;;0.32;76.23;92478.00;2072531;69;20156;-75
2022/12/07 06:49:40;;;;;;;42.15;18.88;;;;;;;0.42;75.11;92479.72;2069218;69;20209;-78
2022/12/07 06:52:06;;;;;;;34.42;16.92;;;;;;;0.49;74.70;92483.78;2072899;69;20686;-80
2022/12/07 06:54:31;;;;;;;37.90;17.23;;;;;;;0.52;74.85;92479.91;2071750;69;20160;-72
2022/12/07 06:56:57;;;;;;;36.10;18.45;;;;;;;0.59;74.48;92479.16;2071896;69;20140;-73
2022/12/07 06:59:23;;;;;;;34.78;18.23;;;;;;;0.59;74.49;92490.25;2071876;69;20323;-73
2022/12/07 07:01:49;;;;;;;33.35;17.67;;;;;;;0.49;74.95;92486.53;2072139;69;20235;-73
2022/12/07 07:04:15;;;;;;;39.13;19.15;;;;;;;0.42;74.63;92481.75;2071716;69;20124;-78
2022/12/07 07:06:41;;;;;;;24.67;14.20;;;;;;;0.24;75.94;92498.13;2071717;69;20504;-76
2022/12/07 07:09:09;;;;;;;27.98;14.82;;;;;;;0.41;74.48;92496.84;2071783;69;20136;-76
2022/12/07 07:11:34;;;;;;;35.42;16.65;;;;;;;0.45;74.91;92494.47;2071888;69;20188;-76
2022/12/07 07:14:02;;;;;;;30.65;16.67;;;;;;;0.52;74.37;92498.56;2068560;69;20150;-79
2022/12/07 07:16:30;;;;;;;113.03;38.08;;;;;;;0.42;74.71;92506.66;2068306;69;20160;-74
2022/12/07 07:18:55;;;;;;;78.55;28.77;;;;;;;0.35;75.70;92507.38;2071488;69;20240;-76
2022/12/07 07:21:21;;;;;;;72.82;30.30;;;;;;;0.50;74.95;92508.16;2071664;69;20136;-76
2022/12/07 07:23:47;;;;;;;77.45;29.52;;;;;;;0.54;75.24;92507.06;2071672;69;20170;-75
2022/12/07 07:26:12;;;;;;;66.45;26.67;;;;;;;0.60;74.72;92511.16;2071660;69;20176;-79
2022/12/07 07:28:38;;;;;;;74.57;27.95;;;;;;;0.66;75.16;92506.16;2071624;69;20152;-73
2022/12/07 07:31:04;;;;;;;64.22;26.23;;;;;;;0.61;75.02;92515.38;2071607;69;20148;-73
2022/12/07 07:33:29;;;;;;;41.08;18.55;;;;;;;0.59;74.84;92511.69;2071554;69;20539;-72
2022/12/07 07:35:55;;;;;;;45.50;21.02;;;;;;;0.32;76.32;92517.53;2071623;69;20231;-81
2022/12/07 07:38:20;;;;;;;42.25;21.25;;;;;;;0.47;75.65;92520.34;2071687;69;20136;-80
2022/12/07 07:40:46;;;;;;;33.63;17.23;;;;;;;0.08;77.19;92526.28;2071673;69;20191;-80
2022/12/07 07:43:12;;;;;;;62.53;27.90;;;;;;;0.42;76.30;92526.78;2068127;69;20162;-81
2022/12/07 07:45:37;;;;;;;73.35;28.75;;;;;;;0.57;75.29;92528.84;2071678;69;20140;-78
2022/12/07 07:48:03;;;;;;;74.03;29.65;;;;;;;0.71;74.86;92521.88;2071393;69;20160;-74
2022/12/07 07:50:28;;;;;;;63.60;26.05;;;;;;;0.73;75.01;92524.84;2071710;69;20734;-79
2022/12/07 07:52:54;;;;;;;50.65;23.08;;;;;;;0.91;74.63;92528.53;2071802;69;20180;-74
2022/12/07 07:55:20;;;;;;;47.33;21.70;;;;;;;0.89;74.51;92528.38;2071580;69;20699;-78
2022/12/07 07:57:45;;;;;;;44.00;21.58;;;;;;;1.05;73.85;92528.38;2071786;69;20140;-73
2022/12/07 08:00:13;;;;;;;46.17;22.52;;;;;;;1.06;74.14;92527.84;2071807;69;20148;-74
2022/12/07 08:02:39;;;;;;;45.58;21.38;;;;;;;1.09;73.96;92528.75;2071675;69;20148;-73
2022/12/07 08:05:05;;;;;;;43.17;19.98;;;;;;;0.98;74.28;92541.69;2071378;69;20466;-73
2022/12/07 08:07:30;;;;;;;37.25;18.45;;;;;;;1.15;73.80;92543.19;2072176;69;20596;-81
2022/12/07 08:09:56;;;;;;;37.67;18.10;;;;;;;1.27;72.84;92533.91;2071645;69;20194;-78
2022/12/07 08:12:22;;;;;;;38.95;18.48;;;;;;;0.91;73.17;92536.13;2068397;69;20147;-78
2022/12/07 08:14:47;;;;;;;33.45;18.52;;;;;;;0.99;73.57;92539.66;2071489;69;20189;-81
2022/12/07 08:17:13;;;;;;;37.97;18.58;;;;;;;0.78;74.63;92545.34;2071731;69;20519;-77
2022/12/07 08:19:38;;;;;;;33.97;18.70;;;;;;;1.11;73.58;92545.59;2071554;69;20473;-77
2022/12/07 08:22:04;;;;;;;30.23;17.02;;;;;;;1.23;72.98;92547.41;2071627;69;20172;-75
2022/12/07 08:24:32;;;;;;;34.13;17.42;;;;;;;1.13;73.25;92546.50;2071802;69;20298;-79
2022/12/07 08:26:58;;;;;;;28.23;15.50;;;;;;;1.27;73.42;92553.34;2071813;69;20320;-81
2022/12/07 08:29:23;;;;;;;29.95;15.23;;;;;;;1.12;72.80;92550.56;2071548;69;20160;-77
2022/12/07 08:31:49;;;;;;;29.00;15.15;;;;;;;1.34;73.39;92557.41;2068391;69;20160;-74
2022/12/07 08:34:15;;;;;;;32.50;16.02;;;;;;;1.18;73.54;92559.44;2071910;69;20213;-74
2022/12/07 08:36:40;;;;;;;27.58;15.30;;;;;;;1.45;73.85;92556.31;2068489;69;20171;-79
2022/12/07 08:39:06;;;;;;;32.95;14.85;;;;;;;1.64;73.16;92564.97;2068190;69;20159;-77
2022/12/07 08:41:32;;;;;;;31.73;14.85;;;;;;;1.76;72.72;92559.78;2071768;69;20155;-77
2022/12/07 08:43:58;;;;;;;29.38;15.50;;;;;;;1.83;72.07;92558.28;2071648;69;20584;-80
2022/12/07 08:46:48;;;;;;;31.60;14.73;;;;;;;1.51;72.31;92560.38;2071624;69;20593;-83
2022/12/07 08:49:20;;;;;;;25.02;14.73;;;;;;;1.37;72.87;92561.84;2068091;69;20141;-76
2022/12/07 08:51:46;;;;;;;30.33;12.52;;;;;;;1.32;72.49;92556.47;2071645;69;20162;-77
2022/12/07 08:54:16;;;;;;;28.33;13.38;;;;;;;1.65;71.94;92549.06;2071618;69;20159;-78
2022/12/07 08:56:42;;;;;;;28.60;13.73;;;;;;;1.85;71.48;92559.22;2071592;69;20620;-80
2022/12/07 08:59:08;;;;;;;25.17;14.20;;;;;;;1.93;70.98;92553.66;2071350;69;20148;-79
2022/12/07 09:01:34;;;;;;;27.17;13.88;;;;;;;1.78;71.00;92557.19;2071591;69;20580;-78
2022/12/07 09:03:59;;;;;;;62.35;26.30;;;;;;;1.15;72.67;92560.56;2071512;69;20221;-77
2022/12/07 09:06:25;;;;;;;61.58;28.10;;;;;;;1.36;73.15;92565.91;2071569;69;20143;-77
2022/12/07 09:08:55;;;;;;;56.40;25.63;;;;;;;1.67;72.13;92565.91;2071529;69;20144;-76
2022/12/07 09:11:21;;;;;;;44.30;21.55;;;;;;;1.73;71.89;92555.34;2071621;69;20564;-75
2022/12/07 09:13:46;;;;;;;45.05;19.25;;;;;;;1.66;71.43;92556.84;2071643;69;20140;-74
2022/12/07 09:16:12;;;;;;;32.08;16.35;;;;;;;1.75;71.18;92553.50;2068237;69;20167;-82
2022/12/07 09:18:38;;;;;;;36.40;17.98;;;;;;;1.70;70.74;92554.44;2071321;69;20151;-79
2022/12/07 09:21:06;;;;;;;38.42;18.98;;;;;;;1.60;71.24;92564.59;2072770;69;20272;-79
2022/12/07 09:23:32;;;;;;;29.92;15.23;;;;;;;1.76;71.21;92557.03;2067325;69;20148;-78
2022/12/07 09:26:00;;;;;;;32.83;17.27;;;;;;;1.74;71.02;92554.03;2073559;69;20228;-79
2022/12/07 09:28:32;;;;;;;29.60;15.35;;;;;;;1.82;70.75;92552.00;2073774;69;20203;-76
2022/12/07 09:30:57;;;;;;;30.25;15.35;;;;;;;1.83;70.49;92550.69;2072526;69;20694;-79
2022/12/07 09:33:23;;;;;;;34.65;16.65;;;;;;;1.97;70.43;92540.13;2072654;69;20243;-78
2022/12/07 09:35:51;;;;;;;25.05;14.27;;;;;;;2.24;70.48;92545.97;2068573;69;20209;-80
2022/12/07 09:38:18;;;;;;;26.20;13.35;;;;;;;2.46;70.46;92539.59;2071405;69;20152;-76
2022/12/07 09:40:44;;;;;;;27.15;14.63;;;;;;;3.01;71.03;92543.56;2071529;69;20149;-77
2022/12/07 09:43:20;;;;;;;29.42;15.98;;;;;;;3.46;71.16;92548.09;2071790;69;20165;-77
2022/12/07 09:45:48;;;;;;;33.00;16.73;;;;;;;3.87;68.27;92543.09;2069307;69;20276;-78
2022/12/07 09:48:19;;;;;;;32.33;15.65;;;;;;;3.77;66.95;92548.56;2071310;69;20625;-75
2022/12/07 09:50:48;;;;;;;26.73;15.50;;;;;;;3.82;65.87;92553.16;2071453;69;20136;-74
2022/12/07 09:53:21;;;;;;;32.00;17.55;;;;;;;4.16;67.53;92551.00;2071384;69;20156;-76
2022/12/07 09:55:46;;;;;;;36.92;20.33;;;;;;;4.25;65.16;92539.91;2071536;69;20246;-81
2022/12/07 09:58:26;;;;;;;38.22;21.60;;;;;;;4.46;63.34;92544.34;2071404;69;20581;-79
2022/12/07 10:01:21;;;;;;;39.30;20.15;;;;;;;4.20;64.86;92538.13;2071391;69;20176;-78
2022/12/07 10:03:58;;;;;;;29.25;16.25;;;;;;;3.89;63.55;92534.91;2053878;69;20145;-76
2022/12/07 10:06:24;;;;;;;29.25;16.17;;;;;;;4.65;63.26;92538.91;2053966;69;20150;-77
2022/12/07 10:08:49;;;;;;;27.42;15.63;;;;;;;5.41;61.13;92522.44;2053829;70;20181;-80
2022/12/07 10:11:16;;;;;;;28.35;15.75;;;;;;;5.44;61.07;92524.06;2053942;69;20142;-80
2022/12/07 10:13:48;;;;;;;30.95;17.17;;;;;;;5.80;59.09;92529.63;2051212;70;20208;-82
2022/12/07 10:16:38;;;;;;;32.05;15.90;;;;;;;6.79;56.91;92527.06;2053929;69;20205;-78
2022/12/07 10:19:39;;;;;;;28.60;14.85;;;;;;;7.91;55.73;92531.28;2053842;69;20158;-80
2022/12/07 10:22:09;;;;;;;21.98;12.98;;;;;;;8.24;54.64;92522.22;2047411;70;20238;-80
2022/12/07 10:24:34;;;;;;;26.08;15.82;;;;;;;7.61;51.40;92513.88;2047418;70;20173;-79
2022/12/07 10:27:00;;;;;;;25.20;15.50;;;;;;;8.19;53.23;92514.88;2047778;70;20559;-77
2022/12/07 10:29:32;;;;;;;19.40;12.43;;;;;;;8.43;51.23;92502.50;2047934;70;20294;-80
2022/12/07 10:32:25;;;;;;;22.98;12.68;;;;;;;9.27;50.40;92516.22;2050671;70;20150;-75
2022/12/07 10:35:11;;;;;;;25.08;13.90;;;;;;;9.41;47.99;92508.69;2050938;70;20242;-74
2022/12/07 10:37:42;;;;;;;19.48;11.88;;;;;;;9.95;47.86;92509.81;2048057;70;20238;-75
2022/12/07 10:40:31;;;;;;;18.50;11.75;;;;;;;10.41;47.26;92511.84;2050581;70;20689;-76
2022/12/07 10:43:04;;;;;;;17.50;11.68;;;;;;;9.72;45.61;92508.47;2053925;70;20751;-83
2022/12/07 10:45:30;;;;;;;;;;;;;;;9.77;45.19;92498.94;2054126;70;20182;-80
2022/12/07 10:48:19;;;;;;;14.13;8.38;;;;;;;11.74;43.80;92500.22;2053987;70;20516;-79
2022/12/07 10:51:09;;;;;;;13.90;8.45;;;;;;;11.52;40.94;92488.47;2053971;70;20267;-81
2022/12/07 10:53:47;;;;;;;12.70;8.45;;;;;;;12.88;41.25;92491.91;2054087;70;20145;-80
2022/12/07 10:56:24;;;;;;;15.23;8.70;;;;;;;10.98;40.35;92489.00;2063836;69;20143;-84
2022/12/07 10:59:07;;;;;;;17.98;11.20;;;;;;;11.59;40.70;92492.34;2072809;69;20168;-76
2022/12/07 11:01:49;;;;;;;26.02;15.75;;;;;;;12.72;41.75;92488.28;2072805;69;20231;-76
2022/12/07 11:04:17;;;;;;;18.30;11.80;;;;;;;12.23;40.48;92485.84;2073586;69;20184;-78
2022/12/07 11:06:58;;;;;;;17.75;11.80;;;;;;;10.98;42.40;92474.94;2074145;69;20508;-75
2022/12/07 11:09:49;;;;;;;16.15;10.63;;;;;;;11.16;41.93;92485.13;2074192;69;20142;-75
2022/12/07 11:12:29;;;;;;;17.83;11.15;;;;;;;9.65;43.83;92472.91;2071154;69;20163;-73
2022/12/07 11:15:11;;;;;;;14.50;10.27;;;;;;;9.30;44.38;92470.06;2067642;69;20232;-73
2022/12/07 11:17:43;;;;;;;24.33;15.38;;;;;;;7.99;47.23;92469.44;2071237;69;20148;-73
2022/12/07 11:20:23;;;;;;;36.88;25.58;;;;;;;7.39;48.96;92473.13;2070925;69;20183;-73
2022/12/07 11:22:58;;;;;;;19.40;11.48;;;;;;;7.71;48.53;92469.00;2071531;69;20156;-72
2022/12/07 11:25:36;;;;;;;18.33;11.00;;;;;;;7.97;48.91;92469.28;2071996;69;20322;-73
2022/12/07 11:28:25;;;;;;;16.15;9.32;;;;;;;8.00;48.12;92459.69;2071636;69;20178;-71
2022/12/07 11:31:03;;;;;;;19.42;11.13;;;;;;;7.67;48.29;92454.72;2071759;69;20643;-76
2022/12/07 11:34:05;;;;;;;24.92;12.98;;;;;;;7.12;49.41;92445.38;2072076;69;20172;-75
2022/12/07 11:36:51;;;;;;;16.50;10.10;;;;;;;7.00;48.94;92442.47;2054227;70;20620;-75
2022/12/07 11:39:33;;;;;;;15.32;9.18;;;;;;;6.62;50.67;92438.44;2054063;70;20595;-77
2022/12/07 11:42:09;;;;;;;16.17;9.90;;;;;;;6.85;50.48;92443.56;2054029;70;20145;-75